createdAt,value
2022-11-04T00:00:12.414Z,10.3
2022-11-04T00:03:13.018Z,10.3
2022-11-04T00:06:11.781Z,10.3
2022-11-04T00:09:11.831Z,10.4
2022-11-04T00:12:11.881Z,10.4
2022-11-04T00:15:11.773Z,10.4
2022-11-04T00:18:11.780Z,10.4
2022-11-04T00:21:11.680Z,10.5
2022-11-04T00:24:11.785Z,10.5
2022-11-04T00:27:11.758Z,10.5
2022-11-04T00:30:11.860Z,10.5
2022-11-04T00:33:11.724Z,10.4
2022-11-04T00:36:11.760Z,10.4
2022-11-04T00:39:11.805Z,10.4
2022-11-04T00:42:11.800Z,10.5
2022-11-04T00:45:11.737Z,10.5
2022-11-04T00:48:12.849Z,10.5
2022-11-04T00:54:11.749Z,10.6
2022-11-04T00:57:11.707Z,10.6
2022-11-04T01:00:11.797Z,10.6
2022-11-04T01:03:13.112Z,10.6
2022-11-04T01:06:11.745Z,10.6
2022-11-04T01:09:11.745Z,10.8
2022-11-04T01:12:11.722Z,10.8
2022-11-04T01:15:11.724Z,10.8
2022-11-04T01:18:13.203Z,10.8
2022-11-04T01:21:11.695Z,10.9
2022-11-04T01:24:11.737Z,10.9
2022-11-04T01:27:11.673Z,10.9
2022-11-04T01:30:11.804Z,11
2022-11-04T01:33:11.748Z,10.9
2022-11-04T01:36:11.779Z,11
2022-11-04T01:39:11.722Z,11
2022-11-04T01:42:12.825Z,11
2022-11-04T01:45:11.776Z,11
2022-11-04T01:48:11.797Z,10.9
2022-11-04T01:51:11.736Z,10.9
2022-11-04T01:54:11.733Z,10.8
2022-11-04T01:57:17.353Z,10.8
2022-11-04T02:00:11.785Z,10.8
2022-11-04T02:03:12.733Z,10.6
2022-11-04T02:06:11.758Z,10.6
2022-11-04T02:09:11.915Z,10.6
2022-11-04T02:12:11.690Z,10.6
2022-11-04T02:15:11.730Z,10.6
2022-11-04T02:18:11.825Z,10.6
2022-11-04T02:21:11.882Z,10.8
2022-11-04T02:24:11.799Z,10.9
2022-11-04T02:27:11.812Z,11
2022-11-04T02:30:11.731Z,11.1
2022-11-04T02:33:12.565Z,11.1
2022-11-04T02:36:11.916Z,11.1
2022-11-04T02:39:11.852Z,11.1
2022-11-04T02:42:11.759Z,11.1
2022-11-04T02:45:11.735Z,11.1
2022-11-04T02:48:11.706Z,11.1
2022-11-04T02:51:11.713Z,11.1
2022-11-04T02:54:11.735Z,11.1
2022-11-04T02:57:11.701Z,11.1
2022-11-04T03:00:11.805Z,11.1
2022-11-04T03:03:13.047Z,11.1
2022-11-04T03:06:11.769Z,11
2022-11-04T03:09:11.741Z,11
2022-11-04T03:12:11.726Z,11
2022-11-04T03:15:11.737Z,11
2022-11-04T03:18:13.008Z,11
2022-11-04T03:21:12.356Z,11
2022-11-04T03:24:11.851Z,11
2022-11-04T03:27:11.787Z,11
2022-11-04T03:30:12.249Z,11
2022-11-04T03:33:13.039Z,11
2022-11-04T03:36:11.752Z,11
2022-11-04T03:39:11.711Z,11
2022-11-04T03:42:11.665Z,11
2022-11-04T03:45:11.722Z,11
2022-11-04T03:48:11.758Z,11
2022-11-04T03:51:11.741Z,11
2022-11-04T03:54:11.790Z,11
2022-11-04T03:57:11.802Z,11
2022-11-04T04:00:11.771Z,11.1
2022-11-04T04:03:11.767Z,11.1
2022-11-04T04:06:11.763Z,11.1
2022-11-04T04:09:11.716Z,11.1
2022-11-04T04:12:11.792Z,11
2022-11-04T04:15:11.745Z,11
2022-11-04T04:18:12.858Z,11
2022-11-04T04:21:11.732Z,11
2022-11-04T04:24:11.739Z,10.9
2022-11-04T04:27:11.759Z,10.9
2022-11-04T04:30:11.774Z,10.8
2022-11-04T04:33:11.739Z,10.8
2022-11-04T04:36:11.705Z,10.8
2022-11-04T04:39:11.762Z,10.6
2022-11-04T04:42:11.832Z,10.6
2022-11-04T04:45:12.460Z,10.5
2022-11-04T04:48:11.875Z,10.5
2022-11-04T04:51:11.753Z,10.5
2022-11-04T04:54:11.720Z,10.4
2022-11-04T04:57:11.722Z,10.4
2022-11-04T05:00:11.951Z,10.3
2022-11-04T05:03:12.800Z,10.3
2022-11-04T05:06:11.727Z,10.3
2022-11-04T05:09:11.700Z,10.1
2022-11-04T05:12:11.780Z,10
2022-11-04T05:15:11.836Z,10
2022-11-04T05:18:13.086Z,10
2022-11-04T05:21:11.774Z,9.9
2022-11-04T05:24:11.764Z,9.9
2022-11-04T05:27:11.695Z,9.8
2022-11-04T05:30:11.793Z,9.8
2022-11-04T05:33:17.771Z,9.6
2022-11-04T05:36:11.787Z,9.6
2022-11-04T05:39:11.766Z,9.5
2022-11-04T05:42:11.733Z,9.5
2022-11-04T05:45:11.759Z,9.5
2022-11-04T05:48:11.753Z,9.5
2022-11-04T05:51:11.714Z,9.4
2022-11-04T05:54:11.781Z,9.3
2022-11-04T05:57:11.824Z,9.3
2022-11-04T06:00:11.842Z,9.1
2022-11-04T06:03:18.752Z,9.1
2022-11-04T06:06:11.839Z,9.1
2022-11-04T06:09:11.785Z,9
2022-11-04T06:12:11.824Z,9
2022-11-04T06:15:11.895Z,8.9
2022-11-04T06:18:12.886Z,9
2022-11-04T06:21:11.721Z,8.9
2022-11-04T06:24:11.836Z,9
2022-11-04T06:27:11.912Z,9
2022-11-04T06:30:12.174Z,9
2022-11-04T06:33:11.759Z,9.1
2022-11-04T06:36:11.875Z,9.3
2022-11-04T06:39:16.208Z,9.3
2022-11-04T06:42:14.151Z,9.4
2022-11-04T06:45:12.061Z,9.5
2022-11-04T06:48:11.743Z,9.6
2022-11-04T06:51:11.669Z,9.6
2022-11-04T06:54:11.739Z,9.9
2022-11-04T06:57:11.757Z,9.9
2022-11-04T07:00:12.500Z,10
2022-11-04T07:03:12.836Z,10.1
2022-11-04T07:06:11.944Z,10.3
2022-11-04T07:09:11.796Z,10.4
2022-11-04T07:12:11.844Z,10.4
2022-11-04T07:15:11.754Z,10.4
2022-11-04T07:18:13.144Z,10.4
2022-11-04T07:21:19.761Z,10.4
2022-11-04T07:24:11.806Z,10.5
2022-11-04T07:30:11.936Z,10.6
2022-11-04T07:33:11.826Z,10.9
2022-11-04T07:36:11.765Z,11
2022-11-04T07:39:11.737Z,11.3
2022-11-04T07:42:11.832Z,11.6
2022-11-04T07:45:11.871Z,12
2022-11-04T07:48:12.778Z,12.2
2022-11-04T07:51:11.863Z,12.2
2022-11-04T07:54:11.829Z,12.4
2022-11-04T07:57:11.826Z,12.4
2022-11-04T08:00:12.027Z,12.5
2022-11-04T08:03:14.612Z,12.5
2022-11-04T08:06:11.894Z,12.5
2022-11-04T08:09:12.741Z,12.6
2022-11-04T08:12:11.738Z,12.8
2022-11-04T08:15:11.880Z,12.8
2022-11-04T08:18:11.832Z,12.9
2022-11-04T08:21:11.865Z,13
2022-11-04T08:24:12.157Z,13.1
2022-11-04T08:27:12.233Z,13.1
2022-11-04T08:30:11.954Z,13.3
2022-11-04T08:33:12.854Z,13.4
2022-11-04T08:36:11.904Z,13.6
2022-11-04T08:39:21.626Z,14.1
2022-11-04T08:42:13.423Z,14.7
2022-11-04T08:45:12.002Z,15.4
2022-11-04T08:48:18.049Z,16
2022-11-04T08:51:12.909Z,16.4
2022-11-04T08:54:11.850Z,16.4
2022-11-04T08:57:11.869Z,16.1
2022-11-04T09:00:11.937Z,16
2022-11-04T09:03:13.154Z,15.8
2022-11-04T09:06:11.929Z,15.6
2022-11-04T09:09:12.657Z,15.6
2022-11-04T09:12:11.907Z,0
2022-11-04T09:15:12.376Z,16
2022-11-04T09:18:11.816Z,16.1
2022-11-04T09:21:11.743Z,16.3
2022-11-04T09:24:11.956Z,16.3
2022-11-04T09:27:12.090Z,16.1
2022-11-04T09:30:12.011Z,16
2022-11-04T09:33:12.900Z,15.8
2022-11-04T09:36:11.936Z,15.8
2022-11-04T09:39:11.810Z,15.8
2022-11-04T09:42:12.011Z,16
2022-11-04T09:45:33.915Z,16.3
2022-11-04T09:48:11.914Z,16.9
2022-11-04T09:51:54.120Z,17.4
2022-11-04T09:54:11.877Z,17.9
2022-11-04T09:57:11.837Z,18.6
2022-11-04T10:00:11.891Z,19.5
2022-11-04T10:03:12.915Z,20.1
2022-11-04T10:06:11.831Z,20.9
2022-11-04T10:09:11.837Z,21.4
2022-11-04T10:12:11.855Z,21.4
2022-11-04T10:15:11.831Z,21.2
2022-11-04T10:18:11.859Z,21
2022-11-04T10:21:11.781Z,20.8
2022-11-04T10:24:11.895Z,20.6
2022-11-04T10:27:12.327Z,20.5
2022-11-04T10:30:11.927Z,20.4
2022-11-04T10:33:13.201Z,20.1
2022-11-04T10:39:11.942Z,19.6
2022-11-04T10:42:11.824Z,19.4
2022-11-04T10:45:11.776Z,19
2022-11-04T10:48:11.938Z,18.8
2022-11-04T10:51:11.943Z,18.6
2022-11-04T10:54:11.932Z,18.5
2022-11-04T10:57:12.115Z,18.5
2022-11-04T11:00:12.181Z,0
2022-11-04T11:03:12.861Z,18.6
2022-11-04T11:06:11.826Z,18.8
2022-11-04T11:09:11.825Z,18.9
2022-11-04T11:12:56.411Z,18.9
2022-11-04T11:15:18.866Z,18.9
2022-11-04T11:18:11.840Z,19.1
2022-11-04T11:21:11.771Z,19.1
2022-11-04T11:24:11.923Z,19.1
2022-11-04T11:27:11.768Z,19.1
2022-11-04T11:30:11.878Z,19.3
2022-11-04T11:33:12.754Z,19.4
2022-11-04T11:36:11.818Z,19.4
2022-11-04T11:39:11.771Z,19.4
2022-11-04T11:42:12.068Z,19.6
2022-11-04T11:45:11.792Z,19.6
2022-11-04T11:48:12.066Z,19.6
2022-11-04T11:51:11.775Z,19.6
2022-11-04T11:54:11.898Z,19.9
2022-11-04T11:57:34.190Z,20.3
2022-11-04T12:03:16.346Z,21.2
2022-11-04T12:09:39.458Z,22
2022-11-04T12:12:11.860Z,21.9
2022-11-04T12:18:11.854Z,21.6
2022-11-04T12:21:11.744Z,21.5
2022-11-04T12:24:11.909Z,21.2
2022-11-04T12:27:12.011Z,21.1
2022-11-04T12:30:12.059Z,21
2022-11-04T12:33:12.698Z,21
2022-11-04T12:36:11.913Z,21
2022-11-04T12:39:11.856Z,21
2022-11-04T12:42:41.299Z,21
2022-11-04T12:45:11.833Z,21
2022-11-04T12:48:11.889Z,21
2022-11-04T12:51:11.932Z,21
2022-11-04T12:54:11.965Z,21.4
2022-11-04T12:57:11.833Z,22.5
2022-11-04T13:00:12.533Z,24
2022-11-04T13:06:12.026Z,26.2
2022-11-04T13:09:12.423Z,25
2022-11-04T13:12:12.667Z,23
2022-11-04T13:15:12.170Z,21.4
2022-11-04T13:18:11.930Z,20.3
2022-11-04T13:21:14.230Z,19.1
2022-11-04T13:24:12.021Z,18.3
2022-11-04T13:27:12.042Z,17.6
2022-11-04T13:30:12.040Z,17.2
2022-11-04T13:33:13.194Z,17.2
2022-11-04T13:36:12.043Z,17.1
2022-11-04T13:39:11.919Z,17.1
2022-11-04T13:42:12.879Z,17.2
2022-11-04T13:45:11.998Z,17.2
2022-11-04T13:48:12.036Z,17.5
2022-11-04T13:51:12.043Z,17.6
2022-11-04T13:54:12.122Z,17.5
2022-11-04T13:57:12.594Z,17.1
2022-11-04T14:00:12.163Z,16.8
2022-11-04T14:03:13.407Z,16.6
2022-11-04T14:06:12.036Z,16.8
2022-11-04T14:09:12.037Z,17.1
2022-11-04T14:12:11.987Z,17.4
2022-11-04T14:15:12.227Z,17
2022-11-04T14:18:18.723Z,16.8
2022-11-04T14:21:11.907Z,16.5
2022-11-04T14:24:18.857Z,16.4
2022-11-04T14:27:11.994Z,16.1
2022-11-04T14:30:12.272Z,15.9
2022-11-04T14:33:13.090Z,15.8
2022-11-04T14:36:12.064Z,15.6
2022-11-04T14:39:12.184Z,15.6
2022-11-04T14:42:12.167Z,15.5
2022-11-04T14:45:11.951Z,15.4
2022-11-04T14:48:18.429Z,15.1
2022-11-04T14:51:12.051Z,15
2022-11-04T14:54:12.098Z,14.7
2022-11-04T14:57:11.881Z,14.4
2022-11-04T15:00:12.305Z,14.1
2022-11-04T15:03:35.775Z,13.9
2022-11-04T15:06:11.973Z,13.8
2022-11-04T15:09:11.995Z,13.5
2022-11-04T15:12:12.067Z,13.4
2022-11-04T15:15:11.961Z,13.3
2022-11-04T15:18:12.045Z,13.1
2022-11-04T15:21:12.040Z,13.1
2022-11-04T15:24:12.218Z,13
2022-11-04T15:27:12.272Z,13
2022-11-04T15:30:12.284Z,12.9
2022-11-04T15:33:13.059Z,12.6
2022-11-04T15:36:11.918Z,12.2
2022-11-04T15:39:12.124Z,12
2022-11-04T15:42:11.981Z,11.6
2022-11-04T15:45:11.999Z,11.4
2022-11-04T15:48:11.807Z,11.1
2022-11-04T15:51:11.881Z,10.9
2022-11-04T15:54:11.821Z,10.6
2022-11-04T15:57:11.972Z,10.5
2022-11-04T16:00:12.081Z,10.3
2022-11-04T16:03:12.733Z,10.1
2022-11-04T16:06:11.860Z,10
2022-11-04T16:09:12.020Z,10
2022-11-04T16:12:11.886Z,10.1
2022-11-04T16:15:11.975Z,10.3
2022-11-04T16:18:11.880Z,10.4
2022-11-04T16:21:11.911Z,10.4
2022-11-04T16:24:11.949Z,10.5
2022-11-04T16:27:11.984Z,10.5
2022-11-04T16:30:12.086Z,10.5
2022-11-04T16:33:13.140Z,10.5
2022-11-04T16:36:11.862Z,10.4
2022-11-04T16:39:12.047Z,10.4
2022-11-04T16:42:12.000Z,10.4
2022-11-04T16:45:11.966Z,10.4
2022-11-04T16:48:11.874Z,10.4
2022-11-04T16:51:12.083Z,10.5
2022-11-04T16:54:11.909Z,10.5
2022-11-04T16:57:11.883Z,10.4
2022-11-04T17:00:11.933Z,10.3
2022-11-04T17:03:12.611Z,10.1
2022-11-04T17:06:11.883Z,10
2022-11-04T17:09:11.926Z,10
2022-11-04T17:12:11.864Z,9.9
2022-11-04T17:15:11.870Z,9.9
2022-11-04T17:18:11.872Z,9.9
2022-11-04T17:21:11.904Z,10
2022-11-04T17:24:11.943Z,10
2022-11-04T17:27:11.870Z,10.1
2022-11-04T17:30:11.913Z,10.1
2022-11-04T17:33:12.950Z,10.3
2022-11-04T17:36:18.959Z,10.3
2022-11-04T17:39:11.966Z,10.4
2022-11-04T17:42:11.875Z,10.4
2022-11-04T17:45:12.055Z,10.4
2022-11-04T17:48:11.920Z,10.4
2022-11-04T17:51:11.830Z,10.5
2022-11-04T17:54:12.279Z,10.5
2022-11-04T17:57:11.854Z,10.5
2022-11-04T18:00:11.963Z,10.5
2022-11-04T18:03:13.015Z,10.5
2022-11-04T18:06:11.896Z,10.5
2022-11-04T18:09:11.906Z,10.5
2022-11-04T18:12:12.028Z,10.6
2022-11-04T18:15:11.863Z,10.5
2022-11-04T18:18:11.846Z,10.6
2022-11-04T18:21:11.832Z,10.6
2022-11-04T18:24:12.198Z,10.6
2022-11-04T18:27:11.872Z,10.6
2022-11-04T18:30:12.021Z,10.6
2022-11-04T18:33:12.819Z,10.8
2022-11-04T18:36:11.912Z,10.6
2022-11-04T18:39:12.027Z,10.6
2022-11-04T18:42:12.075Z,10.6
2022-11-04T18:45:11.950Z,10.8
2022-11-04T18:48:12.927Z,10.8
2022-11-04T18:51:12.043Z,10.8
2022-11-04T18:54:11.980Z,10.8
2022-11-04T18:57:11.884Z,10.8
2022-11-04T19:00:19.627Z,10.6
2022-11-04T19:03:11.752Z,10.6
2022-11-04T19:06:12.104Z,10.8
2022-11-04T19:09:56.652Z,10.6
2022-11-04T19:12:12.044Z,10.6
2022-11-04T19:15:11.903Z,10.6
2022-11-04T19:18:12.922Z,10.6
2022-11-04T19:21:11.944Z,10.5
2022-11-04T19:24:12.039Z,10.5
2022-11-04T19:30:11.861Z,10.5
2022-11-04T19:33:11.789Z,10.5
2022-11-04T19:36:12.200Z,10.5
2022-11-04T19:39:11.787Z,10.5
2022-11-04T19:42:11.825Z,10.5
2022-11-04T19:45:11.814Z,10.5
2022-11-04T19:48:12.746Z,10.5
2022-11-04T19:51:11.725Z,10.5
2022-11-04T19:54:11.928Z,10.5
2022-11-04T19:57:11.760Z,10.4
2022-11-04T20:00:11.832Z,10.4
2022-11-04T20:03:11.744Z,10.3
2022-11-04T20:06:11.797Z,10.1
2022-11-04T20:09:12.177Z,9.8
2022-11-04T20:12:11.766Z,9.6
2022-11-04T20:15:11.713Z,9.4
2022-11-04T20:18:13.103Z,9.3
2022-11-04T20:21:11.691Z,9
2022-11-04T20:24:11.783Z,8.9
2022-11-04T20:27:11.772Z,8.9
2022-11-04T20:30:11.806Z,8.8
2022-11-04T20:33:11.781Z,8.8
2022-11-04T20:36:11.782Z,8.6
2022-11-04T20:39:11.698Z,8.8
2022-11-04T20:42:11.775Z,8.8
2022-11-04T20:45:11.778Z,8.9
2022-11-04T20:48:12.755Z,9
2022-11-04T20:51:11.684Z,9.1
2022-11-04T20:54:11.977Z,9.1
2022-11-04T20:57:11.752Z,9.3
2022-11-04T21:00:11.833Z,9.3
2022-11-04T21:03:11.730Z,9.4
2022-11-04T21:06:11.754Z,9.4
2022-11-04T21:09:11.707Z,9.4
2022-11-04T21:12:11.690Z,9.3
2022-11-04T21:15:12.004Z,9.3
2022-11-04T21:18:12.535Z,9.1
2022-11-04T21:21:12.446Z,8.9
2022-11-04T21:24:11.815Z,8.8
2022-11-04T21:27:11.792Z,8.6
2022-11-04T21:30:11.767Z,8.6
2022-11-04T21:33:11.793Z,8.6
2022-11-04T21:36:11.769Z,8.6
2022-11-04T21:39:11.726Z,8.6
2022-11-04T21:42:11.815Z,8.6
2022-11-04T21:45:11.998Z,8.6
2022-11-04T21:48:12.575Z,8.6
2022-11-04T21:51:11.711Z,8.5
2022-11-04T21:54:11.808Z,8.4
2022-11-04T21:57:11.786Z,8.3
2022-11-04T22:00:11.833Z,8.1
2022-11-04T22:03:12.812Z,8
2022-11-04T22:06:11.758Z,7.9
2022-11-04T22:09:11.765Z,7.7
2022-11-04T22:12:11.829Z,7.6
2022-11-04T22:15:11.725Z,7.5
2022-11-04T22:18:11.783Z,7.4
2022-11-04T22:21:11.674Z,7.2
2022-11-04T22:24:11.764Z,7.1
2022-11-04T22:27:12.144Z,7.1
2022-11-04T22:30:11.786Z,7
2022-11-04T22:33:12.659Z,7
2022-11-04T22:36:11.771Z,6.9
2022-11-04T22:39:19.247Z,6.9
2022-11-04T22:42:11.746Z,7
2022-11-04T22:45:19.093Z,7.1
2022-11-04T22:48:11.691Z,7.2
2022-11-04T22:51:11.701Z,7.4
2022-11-04T22:54:19.906Z,7.5
2022-11-04T22:57:11.685Z,7.6
2022-11-04T23:00:12.293Z,7.7
2022-11-04T23:03:14.285Z,7.9
2022-11-04T23:06:11.751Z,8
2022-11-04T23:09:12.442Z,8.1
2022-11-04T23:12:11.775Z,8.3
2022-11-04T23:15:11.732Z,8.4
2022-11-04T23:18:11.745Z,8.4
2022-11-04T23:21:11.688Z,8.5
2022-11-04T23:24:11.655Z,8.6
2022-11-04T23:27:11.754Z,8.6
2022-11-04T23:30:11.712Z,8.8
2022-11-04T23:33:12.679Z,8.8
2022-11-04T23:36:11.748Z,8.8
2022-11-04T23:39:11.710Z,8.9
2022-11-04T23:42:11.741Z,8.9
2022-11-04T23:45:11.692Z,8.9
2022-11-04T23:48:12.143Z,8.9
2022-11-04T23:51:11.741Z,9
2022-11-04T23:54:11.774Z,9
2022-11-04T23:57:11.750Z,9
